Terminal Aerodrome Forecast
Issued by NWS

Home | Current Version | Previous Version | Text Only | Print | Product List | Glossary On
Versions: 1 2 3 4 5 6 7 8 9 10 11 12 13
551
FTUS46 KPDT 260533
TAFRDM
TAF
KRDM 260533Z 2606/2706 VRB04KT P6SM BKN120
     FM261000 VRB05KT P6SM BKN070 OVC100
     FM261500 19008KT P6SM VCSH OVC060
     FM262000 25009KT 5SM -SHRASN BKN025 OVC030
     FM270300 VRB04KT 3SM -SHSN BR OVC020=

USA.gov is the U.S. government's official web portal to all federal, state and local government web resources and services.